Time;durP1;ratioP1;P1;durP2;ratioP2;P2;SDS_P1;SDS_P2;PMS_P1;PMS_P2;Temp;Humidity;BMP_temperature;BMP_pressure;BME280_temperature;BME280_humidity;BME280_pressure;Samples;Min_cycle;Max_cycle;Signal;HPM_P1;HPM_P2
2024/03/07 00:02:18;;;;;;;13.30;7.97;;;5.10;99.90;;;;;;5044566;28;20082;-70
2024/03/07 00:04:44;;;;;;;12.88;8.02;;;4.90;99.90;;;;;;5042283;28;20032;-70
2024/03/07 00:07:09;;;;;;;13.73;8.18;;;5.00;99.90;;;;;;5043069;28;20029;-69
2024/03/07 00:09:35;;;;;;;12.45;8.07;;;5.00;99.90;;;;;;5044009;28;20532;-69
2024/03/07 00:12:02;;;;;;;16.65;9.48;;;5.10;99.90;;;;;;5042711;28;20098;-69
2024/03/07 00:14:27;;;;;;;14.25;7.93;;;5.10;99.90;;;;;;5045123;28;20029;-70
2024/03/07 00:16:57;;;;;;;12.20;7.63;;;5.10;99.90;;;;;;5041391;28;20037;-69
2024/03/07 00:19:26;;;;;;;12.75;7.35;;;5.10;99.90;;;;;;5042574;28;20100;-68
2024/03/07 00:21:56;;;;;;;9.20;6.40;;;5.10;99.90;;;;;;5047571;28;20037;-69
2024/03/07 00:24:22;;;;;;;11.32;7.50;;;5.00;99.90;;;;;;5046612;28;20025;-69
2024/03/07 00:26:52;;;;;;;11.68;7.72;;;5.00;99.90;;;;;;5047271;28;20052;-70
2024/03/07 00:29:19;;;;;;;16.30;8.70;;;5.00;99.90;;;;;;5042928;28;20414;-70
2024/03/07 00:31:46;;;;;;;14.68;8.02;;;5.00;99.90;;;;;;5043382;28;20135;-70
2024/03/07 00:34:16;;;;;;;13.52;7.70;;;5.10;99.90;;;;;;5044473;28;20025;-69
2024/03/07 00:36:46;;;;;;;13.98;8.38;;;5.10;99.90;;;;;;5044580;28;20568;-69
2024/03/07 00:39:12;;;;;;;14.23;7.57;;;5.10;99.90;;;;;;5045649;28;20514;-70
2024/03/07 00:41:41;;;;;;;15.73;9.15;;;5.10;99.90;;;;;;5044306;28;20037;-71
2024/03/07 00:44:08;;;;;;;13.05;8.48;;;5.10;99.90;;;;;;5045079;28;20399;-71
2024/03/07 00:46:36;;;;;;;14.98;8.68;;;5.20;99.90;;;;;;5036740;28;20596;-71
2024/03/07 00:49:01;;;;;;;14.85;8.35;;;5.20;99.90;;;;;;5045334;28;20055;-70
2024/03/07 00:51:28;;;;;;;15.00;8.10;;;5.10;99.90;;;;;;5042002;28;20056;-70
2024/03/07 00:53:54;;;;;;;16.45;8.48;;;5.10;99.90;;;;;;5041395;28;20033;-71
2024/03/07 00:56:21;;;;;;;12.68;8.23;;;5.10;99.90;;;;;;5044809;28;20090;-70
2024/03/07 00:58:48;;;;;;;16.73;8.25;;;5.10;99.90;;;;;;5044538;28;20036;-70
2024/03/07 01:01:15;;;;;;;13.18;8.02;;;5.10;99.90;;;;;;5040486;28;20622;-70
2024/03/07 01:03:41;;;;;;;12.50;8.23;;;5.10;99.90;;;;;;5041272;28;20028;-70
2024/03/07 01:06:08;;;;;;;18.42;9.20;;;5.10;99.90;;;;;;5042192;28;20509;-70
2024/03/07 01:08:35;;;;;;;12.38;7.45;;;5.10;99.90;;;;;;5041404;28;20409;-71
2024/03/07 01:11:00;;;;;;;14.80;8.85;;;5.10;99.90;;;;;;5042908;28;20028;-70
2024/03/07 01:13:26;;;;;;;13.48;7.75;;;5.00;99.90;;;;;;5042604;28;20482;-70
2024/03/07 01:15:52;;;;;;;14.95;8.52;;;4.90;99.90;;;;;;5043061;28;20025;-70
2024/03/07 01:18:18;;;;;;;14.70;8.90;;;4.90;99.90;;;;;;5044805;28;20699;-71
2024/03/07 01:20:44;;;;;;;13.52;7.78;;;4.90;99.90;;;;;;5041063;28;20028;-70
2024/03/07 01:23:12;;;;;;;13.57;7.90;;;4.90;99.90;;;;;;5043907;28;20536;-70
2024/03/07 01:25:38;;;;;;;16.30;8.82;;;5.00;99.90;;;;;;5037036;28;20343;-70
2024/03/07 01:28:04;;;;;;;20.33;8.52;;;5.00;99.90;;;;;;5044468;28;20021;-70
2024/03/07 01:30:30;;;;;;;15.32;7.88;;;5.00;99.90;;;;;;5044593;28;20060;-70
2024/03/07 01:32:56;;;;;;;14.93;7.57;;;5.00;99.90;;;;;;5045554;28;20075;-70
2024/03/07 01:35:21;;;;;;;13.35;8.77;;;5.00;99.90;;;;;;5042468;28;20484;-69
2024/03/07 01:37:47;;;;;;;18.45;8.95;;;5.00;99.90;;;;;;5046235;28;20021;-69
2024/03/07 01:40:14;;;;;;;14.88;7.95;;;5.00;99.90;;;;;;5046775;28;20060;-70
2024/03/07 01:42:40;;;;;;;16.33;8.95;;;5.00;99.90;;;;;;5040380;28;20098;-69
2024/03/07 01:45:08;;;;;;;12.70;8.40;;;4.80;99.90;;;;;;5044652;28;20044;-69
2024/03/07 01:47:36;;;;;;;16.48;8.63;;;4.80;99.90;;;;;;5041227;28;20036;-70
2024/03/07 01:50:03;;;;;;;16.65;8.57;;;4.80;99.90;;;;;;5042649;28;20478;-70
2024/03/07 01:52:30;;;;;;;17.58;10.38;;;4.90;99.90;;;;;;5042931;28;20045;-71
2024/03/07 01:54:56;;;;;;;16.73;8.40;;;4.90;99.90;;;;;;5044465;28;20052;-70
2024/03/07 01:57:22;;;;;;;13.57;7.82;;;4.80;99.90;;;;;;5043105;28;20021;-70
2024/03/07 01:59:50;;;;;;;16.42;8.68;;;4.80;99.90;;;;;;5038389;28;20064;-69
2024/03/07 02:02:17;;;;;;;17.98;9.30;;;4.70;99.90;;;;;;5044162;28;20339;-70
2024/03/07 02:04:43;;;;;;;15.65;8.63;;;4.70;99.90;;;;;;5040727;28;20037;-70
2024/03/07 02:07:11;;;;;;;15.02;7.82;;;4.70;99.90;;;;;;5041762;28;20445;-71
2024/03/07 02:09:38;;;;;;;13.33;8.67;;;4.80;99.90;;;;;;5042424;28;20537;-69
2024/03/07 02:12:04;;;;;;;15.90;8.50;;;4.80;99.90;;;;;;5041721;28;20419;-70
2024/03/07 02:14:29;;;;;;;14.50;8.75;;;4.80;99.90;;;;;;5041898;28;20025;-71
2024/03/07 02:16:58;;;;;;;16.65;9.20;;;4.70;99.90;;;;;;5043807;28;20478;-71
2024/03/07 02:19:25;;;;;;;17.80;9.77;;;4.70;99.90;;;;;;5039925;28;20518;-70
2024/03/07 02:21:50;;;;;;;16.13;8.65;;;4.60;99.90;;;;;;5039913;28;20061;-69
2024/03/07 02:24:16;;;;;;;20.35;10.23;;;4.40;99.90;;;;;;5043839;28;20029;-70
2024/03/07 02:26:43;;;;;;;18.08;9.43;;;4.40;99.90;;;;;;5040476;28;20025;-69
2024/03/07 02:29:09;;;;;;;18.58;9.95;;;4.30;99.90;;;;;;5044631;28;20056;-69
2024/03/07 02:31:36;;;;;;;18.10;9.40;;;4.30;99.90;;;;;;5038736;28;20059;-70
2024/03/07 02:34:03;;;;;;;17.73;10.60;;;4.30;99.90;;;;;;5043263;28;20025;-69
2024/03/07 02:36:29;;;;;;;20.25;10.02;;;4.30;99.90;;;;;;5043002;28;20025;-69
2024/03/07 02:38:54;;;;;;;19.65;10.70;;;4.20;99.90;;;;;;5041321;28;20036;-69
2024/03/07 02:41:20;;;;;;;18.05;9.95;;;4.20;99.90;;;;;;5041930;28;20479;-70
2024/03/07 02:43:47;;;;;;;17.48;9.32;;;4.10;99.90;;;;;;5041930;28;20036;-69
2024/03/07 02:46:12;;;;;;;15.07;9.30;;;4.20;99.90;;;;;;5040813;28;20527;-69
2024/03/07 02:48:41;;;;;;;19.42;9.30;;;4.20;99.90;;;;;;5042966;28;20112;-70
2024/03/07 02:51:07;;;;;;;19.60;9.68;;;4.20;99.90;;;;;;5039408;28;20075;-70
2024/03/07 02:53:33;;;;;;;22.17;11.00;;;4.20;99.90;;;;;;5041860;28;20264;-69
2024/03/07 02:55:59;;;;;;;22.02;11.98;;;4.20;99.90;;;;;;5040883;28;20025;-71
2024/03/07 02:58:24;;;;;;;24.60;11.75;;;4.10;99.90;;;;;;5038950;28;20033;-69
2024/03/07 03:01:00;;;;;;;25.25;11.25;;;4.10;99.90;;;;;;5042210;28;20445;-68
2024/03/07 03:03:26;;;;;;;21.23;11.60;;;4.10;99.90;;;;;;5046989;28;20478;-70
2024/03/07 03:05:53;;;;;;;22.92;12.82;;;4.10;99.90;;;;;;5043672;28;20438;-69
2024/03/07 03:08:18;;;;;;;23.70;12.25;;;4.10;99.90;;;;;;5048167;28;20517;-70
2024/03/07 03:10:44;;;;;;;21.98;12.18;;;4.10;99.90;;;;;;5047460;28;20333;-71
2024/03/07 03:13:10;;;;;;;28.08;13.70;;;4.00;99.90;;;;;;5045060;28;20116;-69
2024/03/07 03:15:39;;;;;;;26.75;13.93;;;3.90;99.90;;;;;;5047857;28;20035;-70
2024/03/07 03:18:05;;;;;;;29.50;13.20;;;3.70;99.90;;;;;;5045651;28;20029;-72
2024/03/07 03:20:34;;;;;;;20.83;12.50;;;3.70;99.90;;;;;;5048362;28;20029;-69
2024/03/07 03:23:02;;;;;;;21.38;12.88;;;3.60;99.90;;;;;;5038857;28;20600;-72
2024/03/07 03:25:28;;;;;;;24.75;12.95;;;3.60;99.90;;;;;;5047823;28;20041;-72
2024/03/07 03:27:54;;;;;;;24.20;13.45;;;3.60;99.90;;;;;;5046151;28;20024;-70
2024/03/07 03:30:21;;;;;;;27.83;13.52;;;3.50;99.90;;;;;;5043958;28;20029;-69
2024/03/07 03:32:48;;;;;;;30.08;13.23;;;3.50;99.90;;;;;;5047154;28;20025;-70
2024/03/07 03:35:16;;;;;;;27.17;14.45;;;3.50;99.90;;;;;;5041680;28;20410;-69
2024/03/07 03:37:46;;;;;;;25.65;12.93;;;3.50;99.90;;;;;;5044374;28;20075;-69
2024/03/07 03:40:12;;;;;;;31.15;15.65;;;3.40;99.90;;;;;;5042473;28;20363;-71
2024/03/07 03:42:39;;;;;;;30.52;14.38;;;3.40;99.90;;;;;;5045496;28;20033;-70
2024/03/07 03:45:07;;;;;;;30.20;14.57;;;3.30;99.90;;;;;;5045566;28;20039;-70
2024/03/07 03:47:37;;;;;;;28.65;14.65;;;3.30;99.90;;;;;;5043183;28;20021;-70
2024/03/07 03:50:04;;;;;;;27.80;15.20;;;3.30;99.90;;;;;;5045503;28;20074;-70
2024/03/07 03:52:30;;;;;;;29.27;14.93;;;3.20;99.90;;;;;;5043079;28;20037;-70
2024/03/07 03:54:57;;;;;;;30.42;15.27;;;3.20;99.90;;;;;;5039381;28;20546;-70
2024/03/07 03:57:23;;;;;;;30.45;15.73;;;3.10;99.90;;;;;;5039637;28;21013;-70
2024/03/07 03:59:48;;;;;;;35.28;18.02;;;3.10;99.90;;;;;;5048481;28;20273;-70
2024/03/07 04:02:14;;;;;;;35.90;17.58;;;3.10;99.90;;;;;;5046156;28;20036;-71
2024/03/07 04:04:40;;;;;;;34.05;17.02;;;3.00;99.90;;;;;;5046447;28;20072;-71
2024/03/07 04:07:06;;;;;;;37.40;19.05;;;3.00;99.90;;;;;;5045384;28;20380;-72
2024/03/07 04:09:32;;;;;;;34.70;17.52;;;2.90;99.90;;;;;;5044486;28;20017;-71
2024/03/07 04:12:00;;;;;;;35.03;16.85;;;2.90;99.90;;;;;;5045811;28;20071;-69
2024/03/07 04:14:32;;;;;;;35.58;16.95;;;2.90;99.90;;;;;;5042722;28;20386;-70
2024/03/07 04:16:58;;;;;;;34.53;17.52;;;2.90;99.90;;;;;;5044357;28;20064;-70
2024/03/07 04:19:25;;;;;;;35.40;18.23;;;2.80;99.90;;;;;;5046342;28;20094;-70
2024/03/07 04:21:54;;;;;;;40.47;19.27;;;2.80;99.90;;;;;;5045457;28;20036;-69
2024/03/07 04:24:19;;;;;;;35.03;17.70;;;2.80;99.90;;;;;;5038890;28;20025;-69
2024/03/07 04:26:45;;;;;;;38.75;18.13;;;2.80;99.90;;;;;;5042589;28;20029;-69
2024/03/07 04:29:11;;;;;;;38.03;19.30;;;2.70;99.90;;;;;;5045200;28;20025;-69
2024/03/07 04:31:37;;;;;;;36.85;18.98;;;2.70;99.90;;;;;;5041029;28;20527;-69
2024/03/07 04:34:02;;;;;;;39.90;18.02;;;2.70;99.90;;;;;;5022642;28;20030;-69
2024/03/07 04:36:28;;;;;;;40.42;18.08;;;2.70;99.90;;;;;;5024288;28;20499;-71
2024/03/07 04:38:54;;;;;;;31.73;16.13;;;2.70;99.90;;;;;;5025478;28;20120;-69
2024/03/07 04:41:20;;;;;;;35.58;18.17;;;2.70;99.90;;;;;;5025156;28;20482;-71
2024/03/07 04:43:46;;;;;;;40.65;18.77;;;2.60;99.90;;;;;;5023678;28;20025;-72
2024/03/07 04:46:12;;;;;;;37.40;17.02;;;2.60;99.90;;;;;;5023086;28;20032;-70
2024/03/07 04:48:37;;;;;;;34.97;16.52;;;2.60;99.90;;;;;;5021605;28;20445;-73
2024/03/07 04:51:03;;;;;;;37.50;18.45;;;2.60;99.90;;;;;;5022880;28;20078;-70
2024/03/07 04:53:29;;;;;;;38.30;18.67;;;2.60;99.90;;;;;;5025028;28;20096;-72
2024/03/07 04:55:55;;;;;;;38.03;18.92;;;2.50;99.90;;;;;;5023518;28;20408;-69
2024/03/07 04:58:21;;;;;;;39.30;18.35;;;2.50;99.90;;;;;;5027818;28;20133;-69
2024/03/07 05:00:47;;;;;;;40.53;19.33;;;2.50;99.90;;;;;;5021265;28;20568;-70
2024/03/07 05:03:13;;;;;;;34.78;16.02;;;2.50;99.90;;;;;;5019094;28;20025;-69
2024/03/07 05:05:38;;;;;;;34.58;17.35;;;2.40;99.90;;;;;;5021212;28;20033;-71
2024/03/07 05:08:04;;;;;;;32.15;17.17;;;2.40;99.90;;;;;;5023492;28;20102;-70
2024/03/07 05:10:30;;;;;;;32.42;17.35;;;2.40;99.90;;;;;;5018084;28;20099;-71
2024/03/07 05:12:58;;;;;;;33.17;16.45;;;2.30;99.90;;;;;;5021578;28;20032;-70
2024/03/07 05:15:25;;;;;;;33.63;17.50;;;2.30;99.90;;;;;;5022864;28;20559;-69
2024/03/07 05:17:52;;;;;;;30.77;15.48;;;2.30;99.90;;;;;;5017865;28;20384;-69
2024/03/07 05:20:18;;;;;;;34.97;17.13;;;2.20;99.90;;;;;;5023413;28;20459;-69
2024/03/07 05:22:52;;;;;;;32.45;16.13;;;2.20;99.90;;;;;;5021443;28;20224;-68
2024/03/07 05:25:19;;;;;;;31.85;16.27;;;2.20;99.90;;;;;;5017212;28;20049;-70
2024/03/07 05:27:45;;;;;;;30.98;15.40;;;2.20;99.90;;;;;;5019432;28;20025;-70
2024/03/07 05:30:13;;;;;;;31.17;17.52;;;2.30;99.90;;;;;;5020755;28;20025;-69
2024/03/07 05:32:39;;;;;;;34.65;16.38;;;2.20;99.90;;;;;;5022796;28;20595;-69
2024/03/07 05:35:06;;;;;;;31.08;16.10;;;2.30;99.90;;;;;;5018621;28;20088;-69
2024/03/07 05:37:32;;;;;;;38.20;17.10;;;2.30;99.90;;;;;;5021209;28;20033;-71
2024/03/07 05:39:57;;;;;;;30.25;15.50;;;2.20;99.90;;;;;;5020925;28;20032;-72
2024/03/07 05:42:26;;;;;;;31.73;16.42;;;2.20;99.90;;;;;;5021619;28;20037;-68
2024/03/07 05:44:53;;;;;;;26.88;14.32;;;2.20;99.90;;;;;;5018930;28;20576;-69
2024/03/07 05:47:19;;;;;;;33.10;16.95;;;2.20;99.90;;;;;;5020428;28;20334;-69
2024/03/07 05:49:48;;;;;;;34.65;16.42;;;2.20;99.90;;;;;;5017037;28;20455;-71
2024/03/07 05:52:14;;;;;;;30.30;16.92;;;2.20;99.90;;;;;;5020148;28;20034;-69
2024/03/07 05:54:40;;;;;;;30.70;17.10;;;2.20;99.90;;;;;;5018908;28;20048;-68
2024/03/07 05:57:06;;;;;;;34.05;15.65;;;2.20;99.90;;;;;;5018775;28;20033;-71
2024/03/07 05:59:32;;;;;;;31.67;16.13;;;2.20;99.90;;;;;;5017586;28;20199;-69
2024/03/07 06:01:58;;;;;;;36.63;16.00;;;2.10;99.90;;;;;;5035137;28;20259;-69
2024/03/07 06:04:29;;;;;;;33.67;18.40;;;2.10;99.90;;;;;;5034518;28;20037;-70
2024/03/07 06:06:55;;;;;;;32.53;16.13;;;2.10;99.90;;;;;;5041500;28;20033;-70
2024/03/07 06:09:23;;;;;;;37.30;17.27;;;2.10;99.90;;;;;;5039100;28;20036;-70
2024/03/07 06:11:49;;;;;;;32.25;15.90;;;2.10;99.90;;;;;;5039729;28;20028;-71
2024/03/07 06:14:16;;;;;;;31.23;16.60;;;2.30;99.90;;;;;;5044513;28;20598;-71
2024/03/07 06:16:42;;;;;;;27.90;14.73;;;2.30;99.90;;;;;;5038343;28;20091;-70
2024/03/07 06:19:08;;;;;;;35.40;16.05;;;2.40;99.90;;;;;;5044762;28;20603;-71
2024/03/07 06:21:35;;;;;;;32.30;14.75;;;2.30;99.90;;;;;;5046775;28;20513;-70
2024/03/07 06:24:07;;;;;;;31.13;15.45;;;2.40;99.90;;;;;;5042291;28;20048;-71
2024/03/07 06:26:44;;;;;;;34.00;15.60;;;2.40;99.90;;;;;;5044478;28;20127;-71
2024/03/07 06:29:18;;;;;;;31.17;15.60;;;2.30;99.90;;;;;;5055904;28;20034;-70
2024/03/07 06:31:47;;;;;;;25.35;12.60;;;2.30;99.90;;;;;;5045488;28;20055;-71
2024/03/07 06:34:13;;;;;;;28.50;13.63;;;2.30;99.90;;;;;;5037107;28;20079;-69
2024/03/07 06:36:50;;;;;;;25.45;13.32;;;2.40;99.90;;;;;;5049318;28;20116;-70
2024/03/07 06:39:16;;;;;;;27.50;14.38;;;2.50;99.90;;;;;;5044613;28;20028;-71
2024/03/07 06:41:42;;;;;;;34.50;15.90;;;2.50;99.90;;;;;;5040907;28;20494;-70
2024/03/07 06:44:09;;;;;;;26.90;13.45;;;2.60;99.90;;;;;;5043394;28;20036;-70
2024/03/07 06:46:35;;;;;;;29.92;15.40;;;2.60;99.90;;;;;;5044310;28;20363;-71
2024/03/07 06:49:05;;;;;;;34.03;17.10;;;2.50;99.90;;;;;;5046518;28;20040;-70
2024/03/07 06:51:31;;;;;;;33.63;15.10;;;2.60;99.90;;;;;;5048124;28;20079;-70
2024/03/07 06:54:00;;;;;;;32.42;15.73;;;2.70;99.90;;;;;;5042040;28;20499;-70
2024/03/07 06:56:26;;;;;;;30.73;15.85;;;2.60;99.90;;;;;;5044031;28;20024;-70
2024/03/07 06:58:51;;;;;;;35.40;16.27;;;2.40;99.90;;;;;;5044192;28;20284;-70
2024/03/07 07:01:18;;;;;;;33.50;16.98;;;2.40;99.90;;;;;;5046987;28;20118;-70
2024/03/07 07:03:44;;;;;;;27.80;14.90;;;2.30;99.90;;;;;;5046940;28;20091;-71
2024/03/07 07:06:10;;;;;;;35.83;16.92;;;2.30;99.90;;;;;;5041132;28;20029;-70
2024/03/07 07:08:36;;;;;;;36.30;17.92;;;2.20;99.90;;;;;;5042722;28;20367;-70
2024/03/07 07:11:03;;;;;;;29.50;16.15;;;2.20;99.90;;;;;;5044345;28;20047;-69
2024/03/07 07:13:29;;;;;;;33.25;16.30;;;2.20;99.90;;;;;;5046437;28;20037;-70
2024/03/07 07:15:55;;;;;;;36.13;17.10;;;2.20;99.90;;;;;;5045344;28;20409;-69
2024/03/07 07:18:23;;;;;;;33.90;16.90;;;2.20;99.90;;;;;;5047547;28;20028;-70
2024/03/07 07:20:50;;;;;;;36.90;19.38;;;2.10;99.90;;;;;;5042939;28;20386;-70
2024/03/07 07:23:16;;;;;;;36.15;17.85;;;2.20;99.90;;;;;;5047155;28;20036;-69
2024/03/07 07:25:41;;;;;;;36.67;17.48;;;2.10;99.90;;;;;;5047401;28;20030;-68
2024/03/07 07:28:07;;;;;;;35.88;16.40;;;2.10;99.90;;;;;;5041625;28;20460;-71
2024/03/07 07:30:34;;;;;;;36.85;18.38;;;2.10;99.90;;;;;;5044231;28;20402;-70
2024/03/07 07:32:59;;;;;;;34.63;17.05;;;2.10;99.90;;;;;;5045388;28;20622;-72
2024/03/07 07:35:26;;;;;;;34.92;18.30;;;2.10;99.90;;;;;;5047451;28;20112;-71
2024/03/07 07:37:53;;;;;;;43.88;19.70;;;2.10;99.90;;;;;;5042203;28;20437;-70
2024/03/07 07:40:22;;;;;;;42.40;17.67;;;2.20;99.90;;;;;;5044177;28;20080;-71
2024/03/07 07:42:54;;;;;;;37.42;17.55;;;2.20;99.90;;;;;;5043133;28;20088;-71
2024/03/07 07:45:22;;;;;;;38.13;18.80;;;2.20;99.90;;;;;;5045459;28;20044;-69
2024/03/07 07:47:49;;;;;;;40.13;20.02;;;2.20;99.90;;;;;;5040202;28;20413;-67
2024/03/07 07:50:20;;;;;;;38.60;17.67;;;2.20;99.90;;;;;;5049859;28;20414;-69
2024/03/07 07:52:54;;;;;;;37.58;17.77;;;2.20;99.90;;;;;;5051756;28;20045;-69
2024/03/07 07:55:28;;;;;;;38.25;16.98;;;2.30;99.90;;;;;;5046246;28;20276;-69
2024/03/07 07:57:55;;;;;;;46.22;20.15;;;2.30;99.90;;;;;;5045019;28;20537;-70
2024/03/07 08:00:23;;;;;;;41.38;19.65;;;2.30;99.90;;;;;;5044094;28;20047;-68
2024/03/07 08:02:56;;;;;;;43.70;19.85;;;2.30;99.90;;;;;;5046797;28;20017;-68
2024/03/07 08:05:23;;;;;;;41.05;20.30;;;2.40;99.90;;;;;;5039589;28;20053;-69
2024/03/07 08:07:50;;;;;;;41.22;18.05;;;2.40;99.90;;;;;;5043269;28;20036;-70
2024/03/07 08:10:18;;;;;;;38.97;19.17;;;2.50;99.90;;;;;;5041818;28;20052;-70
2024/03/07 08:12:43;;;;;;;36.85;19.02;;;2.50;99.90;;;;;;5047192;28;20108;-68
2024/03/07 08:15:13;;;;;;;44.33;20.75;;;2.60;99.90;;;;;;5048874;28;20119;-69
2024/03/07 08:17:47;;;;;;;43.95;21.58;;;2.60;99.90;;;;;;5047951;28;20060;-69
2024/03/07 08:20:14;;;;;;;38.65;20.00;;;2.70;99.90;;;;;;5046381;28;20293;-69
2024/03/07 08:22:41;;;;;;;43.58;21.77;;;2.80;99.90;;;;;;5044823;28;20045;-70
2024/03/07 08:25:09;;;;;;;47.60;22.80;;;2.90;99.90;;;;;;5050038;28;20128;-71
2024/03/07 08:27:36;;;;;;;48.20;21.15;;;2.90;99.90;;;;;;5046471;28;20025;-70
2024/03/07 08:30:03;;;;;;;40.45;20.08;;;2.90;99.90;;;;;;5049846;28;20029;-70
2024/03/07 08:32:29;;;;;;;40.92;19.13;;;2.90;99.90;;;;;;5046270;28;20033;-69
2024/03/07 08:34:54;;;;;;;48.50;21.58;;;2.90;99.90;;;;;;5046519;28;20464;-70
2024/03/07 08:37:21;;;;;;;43.13;20.63;;;3.00;99.90;;;;;;5048909;28;20033;-69
2024/03/07 08:39:47;;;;;;;45.97;22.27;;;3.00;99.90;;;;;;5046367;28;20021;-70
2024/03/07 08:42:12;;;;;;;50.42;23.63;;;2.90;99.90;;;;;;5046603;28;20129;-69
2024/03/07 08:44:38;;;;;;;47.53;21.85;;;3.00;99.90;;;;;;5036315;28;20037;-69
2024/03/07 08:47:03;;;;;;;44.22;19.23;;;3.00;99.90;;;;;;5042052;28;20029;-71
2024/03/07 08:49:29;;;;;;;41.40;19.67;;;3.10;99.90;;;;;;5040423;28;20128;-69
2024/03/07 08:51:55;;;;;;;44.83;21.77;;;3.10;99.90;;;;;;5043988;28;20056;-69
2024/03/07 08:54:20;;;;;;;43.50;20.02;;;3.10;99.90;;;;;;5045695;28;20427;-70
2024/03/07 08:56:46;;;;;;;39.70;20.73;;;3.10;99.90;;;;;;5041065;28;20037;-70
2024/03/07 08:59:15;;;;;;;40.03;18.83;;;3.20;99.90;;;;;;5041831;28;20032;-70
2024/03/07 09:01:43;;;;;;;41.03;19.42;;;3.10;99.90;;;;;;5044767;28;20561;-70
2024/03/07 09:04:09;;;;;;;52.67;21.48;;;3.00;99.90;;;;;;5045316;28;20470;-70
2024/03/07 09:06:35;;;;;;;39.15;19.88;;;3.10;99.90;;;;;;5043191;28;20052;-69
2024/03/07 09:09:00;;;;;;;46.53;21.20;;;3.10;99.90;;;;;;5041720;28;20474;-70
2024/03/07 09:11:26;;;;;;;46.65;21.88;;;3.10;99.90;;;;;;5047639;28;20032;-69
2024/03/07 09:13:52;;;;;;;40.38;18.33;;;3.10;99.90;;;;;;5047858;28;20055;-69
2024/03/07 09:16:18;;;;;;;43.70;21.73;;;3.20;99.90;;;;;;5046830;28;20056;-69
2024/03/07 09:18:44;;;;;;;39.53;20.63;;;3.30;99.90;;;;;;5046479;28;20266;-71
2024/03/07 09:21:09;;;;;;;42.00;21.98;;;3.20;99.90;;;;;;5046823;28;20308;-71
2024/03/07 09:23:35;;;;;;;47.90;23.90;;;3.30;99.90;;;;;;5047788;28;20047;-70
2024/03/07 09:26:02;;;;;;;47.53;23.13;;;3.40;99.90;;;;;;5044570;28;20033;-69
2024/03/07 09:28:28;;;;;;;48.47;21.73;;;3.40;99.90;;;;;;5039298;28;20554;-69
2024/03/07 09:30:55;;;;;;;38.60;19.92;;;3.50;99.90;;;;;;5044708;28;20138;-69
2024/03/07 09:33:21;;;;;;;43.63;20.13;;;3.40;99.90;;;;;;5044760;28;20165;-70
2024/03/07 09:35:48;;;;;;;47.40;22.55;;;3.40;99.90;;;;;;5042794;28;20513;-69
2024/03/07 09:38:14;;;;;;;49.15;21.15;;;3.50;99.90;;;;;;5050813;28;20021;-69
2024/03/07 09:40:40;;;;;;;40.15;19.27;;;3.60;99.90;;;;;;5048856;28;20021;-71
2024/03/07 09:43:09;;;;;;;47.92;21.63;;;3.60;99.90;;;;;;5047751;28;20051;-70
2024/03/07 09:45:35;;;;;;;48.05;22.10;;;3.70;99.90;;;;;;5044239;28;20035;-70
2024/03/07 09:48:02;;;;;;;44.17;20.10;;;3.70;99.90;;;;;;5038773;28;20028;-69
2024/03/07 09:50:29;;;;;;;50.75;24.40;;;3.80;99.90;;;;;;5042129;28;20017;-72
2024/03/07 09:52:56;;;;;;;46.60;23.83;;;3.90;99.90;;;;;;5043721;28;20041;-69
2024/03/07 09:55:23;;;;;;;49.45;22.17;;;4.00;99.90;;;;;;5041051;28;20593;-70
2024/03/07 09:57:50;;;;;;;41.97;19.70;;;3.90;99.90;;;;;;5041215;28;20025;-69
2024/03/07 10:00:24;;;;;;;37.72;21.20;;;3.90;99.90;;;;;;5044735;28;20881;-70
2024/03/07 10:03:03;;;;;;;43.45;20.42;;;3.70;99.90;;;;;;5041026;28;20522;-69
2024/03/07 10:05:31;;;;;;;43.28;20.85;;;3.70;99.90;;;;;;5043087;28;20090;-70
2024/03/07 10:07:57;;;;;;;38.38;19.77;;;3.80;99.90;;;;;;5045263;28;20021;-70
2024/03/07 10:10:23;;;;;;;47.03;21.58;;;3.80;99.90;;;;;;5047124;28;20029;-71
2024/03/07 10:12:58;;;;;;;41.95;20.40;;;3.80;99.90;;;;;;5046529;28;20087;-70
2024/03/07 10:15:31;;;;;;;48.50;21.80;;;3.80;99.90;;;;;;5040830;28;20029;-68
2024/03/07 10:17:57;;;;;;;47.72;22.63;;;3.80;99.90;;;;;;5036230;28;20052;-69
2024/03/07 10:20:24;;;;;;;50.15;25.42;;;4.00;99.90;;;;;;5042467;28;20071;-71
2024/03/07 10:22:50;;;;;;;48.28;23.27;;;4.00;99.90;;;;;;5038924;28;20420;-69
2024/03/07 10:25:24;;;;;;;48.13;24.63;;;4.10;99.90;;;;;;5043498;28;20021;-69
2024/03/07 10:27:51;;;;;;;47.55;24.08;;;4.10;99.90;;;;;;5042004;28;20037;-70
2024/03/07 10:30:23;;;;;;;44.33;20.80;;;4.10;99.90;;;;;;5042359;28;20566;-69
2024/03/07 10:32:56;;;;;;;44.50;21.40;;;4.20;99.90;;;;;;5037972;28;20055;-69
2024/03/07 10:35:24;;;;;;;42.40;21.85;;;4.20;99.90;;;;;;5040475;28;20424;-68
2024/03/07 10:37:53;;;;;;;42.08;22.85;;;4.20;99.90;;;;;;5042208;28;20083;-68
2024/03/07 10:40:22;;;;;;;47.55;23.42;;;4.40;99.90;;;;;;5042576;28;20068;-68
2024/03/07 10:42:51;;;;;;;44.47;23.13;;;4.40;99.90;;;;;;5035836;28;20036;-69
2024/03/07 10:45:21;;;;;;;47.35;22.08;;;4.40;99.90;;;;;;5037223;28;20445;-68
2024/03/07 10:47:52;;;;;;;46.83;21.15;;;4.40;99.90;;;;;;5033963;28;20040;-68
2024/03/07 10:50:28;;;;;;;39.72;20.25;;;4.50;99.90;;;;;;5043172;28;20132;-68
2024/03/07 10:53:07;;;;;;;42.40;21.70;;;4.50;99.90;;;;;;5044705;28;20056;-69
2024/03/07 10:56:14;;;;;;;43.88;19.98;;;4.60;99.90;;;;;;5040707;28;20064;-70
2024/03/07 10:59:16;;;;;;;45.28;20.77;;;4.80;99.90;;;;;;5036049;28;20037;-69
2024/03/07 11:01:59;;;;;;;43.53;22.20;;;4.80;99.90;;;;;;5039910;28;20056;-68
2024/03/07 11:04:25;;;;;;;48.28;23.40;;;5.00;99.90;;;;;;5039403;28;20060;-69
2024/03/07 11:06:51;;;;;;;48.90;22.92;;;5.00;99.90;;;;;;5037451;28;20065;-69
2024/03/07 11:09:23;;;;;;;41.80;19.95;;;5.00;99.90;;;;;;5039205;28;20028;-69
2024/03/07 11:11:49;;;;;;;53.72;25.95;;;5.00;99.90;;;;;;5039567;28;20071;-70
2024/03/07 11:14:17;;;;;;;47.45;23.92;;;5.30;99.90;;;;;;5043179;28;20426;-70
2024/03/07 11:16:44;;;;;;;48.10;22.80;;;5.30;99.90;;;;;;5039403;28;20063;-72
2024/03/07 11:19:27;;;;;;;49.22;23.40;;;5.30;99.90;;;;;;5042495;28;20053;-69
2024/03/07 11:21:56;;;;;;;47.50;22.63;;;5.30;99.90;;;;;;5038247;28;20032;-70
2024/03/07 11:24:32;;;;;;;38.95;20.83;;;5.30;99.90;;;;;;5046096;28;20025;-70
2024/03/07 11:26:58;;;;;;;44.50;22.33;;;5.70;99.90;;;;;;5039108;28;20429;-70
2024/03/07 11:29:43;;;;;;;42.03;21.05;;;5.90;99.90;;;;;;5048208;28;20466;-69
2024/03/07 11:32:13;;;;;;;43.63;21.30;;;6.10;99.90;;;;;;5044948;28;20036;-70
2024/03/07 11:34:42;;;;;;;42.33;21.55;;;6.40;99.90;;;;;;5044273;28;20538;-70
2024/03/07 11:37:17;;;;;;;39.67;19.27;;;6.40;99.90;;;;;;5042832;28;20051;-69
2024/03/07 11:39:46;;;;;;;38.88;20.58;;;6.10;99.90;;;;;;5040503;28;20063;-70
2024/03/07 11:42:28;;;;;;;;;;;6.00;99.90;;;;;;5043231;28;20036;-69
2024/03/07 11:45:03;;;;;;;40.67;21.77;;;6.00;99.90;;;;;;5042244;28;19923;-69
2024/03/07 11:47:38;;;;;;;32.28;15.93;;;5.90;99.90;;;;;;5040957;28;20044;-69
2024/03/07 11:50:08;;;;;;;33.38;17.67;;;5.70;99.90;;;;;;5039627;28;20435;-69
2024/03/07 11:52:36;;;;;;;32.53;17.90;;;6.00;99.90;;;;;;5043551;28;20709;-70
2024/03/07 11:55:05;;;;;;;37.05;18.98;;;6.00;99.90;;;;;;5044142;28;20429;-69
2024/03/07 11:57:34;;;;;;;35.70;18.27;;;6.10;99.90;;;;;;5043932;28;20516;-71
2024/03/07 12:00:01;;;;;;;34.53;17.75;;;6.10;99.90;;;;;;5041200;28;20095;-69
2024/03/07 12:02:29;;;;;;;33.80;18.63;;;6.00;99.90;;;;;;5044558;28;20407;-69
2024/03/07 12:04:54;;;;;;;42.00;19.95;;;6.00;99.90;;;;;;5041151;28;20032;-68
2024/03/07 12:07:23;;;;;;;35.20;17.60;;;6.00;99.90;;;;;;5043839;28;20494;-69
2024/03/07 12:09:53;;;;;;;28.15;15.82;;;6.00;99.90;;;;;;5043460;28;20029;-69
2024/03/07 12:12:30;;;;;;;32.30;17.75;;;6.00;99.90;;;;;;5048642;28;20025;-69
2024/03/07 12:14:56;;;;;;;35.60;18.13;;;6.00;99.90;;;;;;5044289;28;20078;-69
2024/03/07 12:17:22;;;;;;;33.08;17.73;;;6.00;99.90;;;;;;5042097;28;20029;-69
2024/03/07 12:19:52;;;;;;;33.92;18.33;;;6.20;99.90;;;;;;5046400;28;20510;-69
2024/03/07 12:22:24;;;;;;;34.42;16.80;;;6.40;99.90;;;;;;5057608;28;20276;-68
2024/03/07 12:25:05;;;;;;;33.85;15.98;;;6.40;99.90;;;;;;5048537;28;20052;-69
2024/03/07 12:27:31;;;;;;;34.92;17.67;;;6.50;99.90;;;;;;5044507;28;20538;-70
2024/03/07 12:29:57;;;;;;;31.40;16.00;;;6.50;99.90;;;;;;5042983;28;20170;-70
2024/03/07 12:32:24;;;;;;;29.38;14.68;;;6.50;99.90;;;;;;5043721;28;20504;-71
2024/03/07 12:34:52;;;;;;;29.27;13.48;;;6.40;99.90;;;;;;5046534;28;20021;-69
2024/03/07 12:37:18;;;;;;;29.30;15.93;;;6.40;99.90;;;;;;5044438;28;20155;-69
2024/03/07 12:39:48;;;;;;;30.50;17.20;;;6.40;99.90;;;;;;5040842;28;20085;-69
2024/03/07 12:42:17;;;;;;;31.52;16.40;;;6.30;99.90;;;;;;5041040;28;20094;-70